Hit Tracker is now ESPN Home Run Tracker! Hit Tracker founder Greg Rybarczyk is now collaborating with the ESPN Stats & Information Group to continue tracking all MLB home runs, and helping baseball fans know "How Far It Really Went!™" Please credit any information on this site to ESPN Stats & Information Group. For more information and analysis on home runs, please contact founder Greg Rybarczyk. E-Mail ESPN Home Run Tracker
Main Page | Ballparks | Park Overlays | Glossary | Highlight Homers | Feedback | Bio | 3 Types of HR's | AAA Home Run Derby Last Updated: September 18, 2017, 10:55 pm PST
If you want to know "How Far It Really Went!", then you've come to the right place! Welcome to the ESPN Home Run Tracker, where you can find accurate, transparently verifiable distances for every home run hit in MLB games. Please also check out the ESPN MLB Scoreboard throughout the 2017 season! Contact us at grybar@hittrackeronline.com.
Season:
Ballpark detail for AT&T Park
Ballpark # of Home Runs HR per game Avg.
True
Distance
Avg.
Speed
Off
Bat
Avg.
Std.
Dist.
AT&T Park 113 1.49 398.4 102.6 391.8

Scatter Plot of Home Runs AT&T Park
 Overlay Ballpark:
Without range rings   With range rings

2017 Season Home Runs for AT&T Park
Click headers to sort
Date Video Path Hitter Hitter
Team
Pitcher Pitcher
Team
INN ^ Ballpark Type/
Luck
True
Dist.
Speed
Off
Bat
Elev.
Angle
Horiz.
Angle
Apex Impact Due To: Std.
Dist.
#
Parks
Wind Temp. Alt.
04/16/17 Video View Blackmon, Charlie COL Samardzija, Jeff SF 1 AT&T Park JE 421 103.9 27.8 83.9 101 0 -1 0 422 27
04/27/17 Video View Seager, Corey LAD Moore, Matt SF 1 AT&T Park JE 416 106.3 22.3 95.6 70 0 0 0 416 23
05/11/17 Video View Belt, Brandon SF Arroyo, Bronson CIN 1 AT&T Park PL 434 105.8 27.5 87.6 107 0 -2 0 437 30
05/12/17 Video View Span, Denard SF Feldman, Scott CIN 1 AT&T Park PL 366 100.6 32.7 68.7 113 -13 -3 0 383 30
05/13/17 Video View Belt, Brandon SF Bonilla, Lisalverto CIN 1 AT&T Park ND 375 100.0 37.9 59.4 120 22 -2 0 355 29
05/31/17 Video View Zimmerman, Ryan WSH Cain, Matt SF 1 AT&T Park PL 375 100.4 28.4 118.3 74 7 -1 0 370 24
06/10/17 Video View Belt, Brandon SF Berrios, Jose MIN 1 AT&T Park ND 368 98.1 41.1 57.1 128 42 -2 0 327 4
07/07/17 Video View Stanton, Giancarlo MIA Moore, Matt SF 1 AT&T Park JE/L 376 94.6 38.5 64.9 110 42 0 0 334 0
07/23/17 Video View Myers, Wil SD Blach, Ty SF 1 AT&T Park ND 448 107.7 28.3 101.3 99 12 -1 0 436 30
08/08/17 Video View Posey, Buster SF Quintana, Jose CHC 1 AT&T Park JE/L 383 97.2 33.2 101.6 109 7 -2 0 377 5
08/19/17 Video View Span, Denard SF Eickhoff, Jerad PHI 1 AT&T Park ITP 390 97.5 39.5 75.4 131 46 -2 0 345 0
09/11/17 Video View Span, Denard SF Maeda, Kenta LAD 1 AT&T Park ND 415 108.4 28.2 64.4 90 1 -1 0 415 30
09/16/17 Video View Goldschmidt, Paul ARI Bumgarner, Madison SF 1 AT&T Park PL 437 113.1 20.5 97.5 66 0 0 0 437 29
04/14/17 Video View Marrero, Chris SF Anderson, Tyler COL 2 AT&T Park PL 393 110.0 22.6 113.3 60 0 -1 0 394 30
05/13/17 Video View Ruggiano, Justin SF Bonilla, Lisalverto CIN 2 AT&T Park PL 417 102.2 26.7 90.6 88 3 0 0 415 22
05/27/17 Video View Hundley, Nick SF Foltynewicz, Mike ATL 2 AT&T Park PL 391 99.3 32.6 102.2 112 5 -2 0 388 20
05/29/17 Video View Zimmerman, Ryan WSH Moore, Matt SF 2 AT&T Park PL 417 102.6 29.7 97.2 106 4 -2 0 415 30
06/11/17 Video View Escobar, Eduardo MIN Cain, Matt SF 2 AT&T Park PL 411 102.2 31.2 70.8 96 18 -2 0 395 30
06/11/17 Video View Buxton, Byron MIN Cain, Matt SF 2 AT&T Park PL 409 102.4 27.4 100.6 89 3 -1 0 406 27
06/14/17 Video View Moustakas, Mike KC Cueto, Johnny SF 2 AT&T Park ND 406 104.7 32.1 70.6 115 0 1 0 405 30
06/23/17 Video View Cespedes, Yoenis NYM Blach, Ty SF 2 AT&T Park PL 392 98.0 32.9 103.7 104 14 -2 0 379 8
06/25/17 Video View Rivera, Rene NYM Moore, Matt SF 2 AT&T Park PL 379 101.3 31.4 119.8 92 2 -1 0 378 30
07/09/17 Video View Crawford, Brandon SF Urena, Jose MIA 2 AT&T Park JE 432 106.4 27.7 77.3 94 6 -1 0 426 29
07/20/17 Video View Renfroe, Hunter SD Bumgarner, Madison SF 2 AT&T Park JE 355 94.3 36.2 123.5 96 19 -2 0 337 6
07/24/17 Video View McCutchen, Andrew PIT Cain, Matt SF 2 AT&T Park JE/L 387 97.1 33.1 100.3 107 10 -2 0 378 5
08/03/17 Video View Belt, Brandon SF Graveman, Kendall OAK 2 AT&T Park JE 408 101.9 26.3 96.3 87 0 0 0 408 20
08/06/17 Video View Parker, Jarrett SF Corbin, Patrick ARI 2 AT&T Park PL 433 103.7 29.7 87.1 107 10 -1 0 424 28
08/07/17 Video View Baez, Javier CHC Moore, Matt SF 2 AT&T Park ITP/L 416 103.0 28.1 77.3 89 9 -1 0 408 28
08/18/17 Video View Pence, Hunter SF Eflin, Zach PHI 2 AT&T Park PL 407 99.7 34.2 103.3 113 25 -2 0 384 20
08/31/17 Video View Grichuk, Randal STL Cain, Matt SF 2 AT&T Park PL 420 103.2 29.6 99.2 105 3 2 0 416 30
09/01/17 Video View Crawford, Brandon SF Flaherty, Jack STL 2 AT&T Park JE 430 106.2 25.6 81.3 86 1 2 0 426 30
09/11/17 Video View Parker, Jarrett SF Maeda, Kenta LAD 2 AT&T Park JE/L 342 97.8 27.2 56.4 64 -1 0 0 344 12
04/15/17 Video View Arenado, Nolan COL Moore, Matt SF 3 AT&T Park PL 390 104.3 26.4 112.9 75 0 -1 0 391 30
06/14/17 Video View Bonifacio, Jorge KC Cueto, Johnny SF 3 AT&T Park PL 425 106.7 22.5 88.3 73 0 0 0 426 28
06/14/17 Video View Cain, Lorenzo KC Cueto, Johnny SF 3 AT&T Park JE 381 108.2 21.1 108.4 53 1 0 0 380 10
07/17/17 Video View Gomes, Yan CLE Moore, Matt SF 3 AT&T Park PL/L 368 97.3 42.6 121.0 134 58 -3 0 311 0
08/02/17 Video View Healy, Ryon OAK Moore, Matt SF 3 AT&T Park PL 402 99.7 33.1 109.2 102 23 -2 0 380 26
08/09/17 Video View Almora Jr., Albert CHC Bumgarner, Madison SF 3 AT&T Park PL 389 109.8 21.6 110.9 55 0 0 0 389 28
08/18/17 Video View Crawford, Brandon SF Eflin, Zach PHI 3 AT&T Park JE 393 102.1 24.1 99.3 70 0 0 0 394 12
08/19/17 Video View Hoskins, Rhys PHI Blach, Ty SF 3 AT&T Park PL 389 100.0 35.0 116.6 108 21 -2 0 369 27
09/01/17 Video View Bader, Harrison STL Cueto, Johnny SF 3 AT&T Park PL 402 101.3 29.5 105.1 94 3 3 0 396 30
09/12/17 Video View Tomlinson, Kelby SF Kershaw, Clayton LAD 3 AT&T Park PL 391 104.0 25.5 110.9 70 3 0 0 388 30
04/13/17 Video View Story, Trevor COL Bumgarner, Madison SF 4 AT&T Park PL 409 103.9 26.7 104.8 82 5 -1 0 405 30
04/14/17 Video View Crawford, Brandon SF Anderson, Tyler COL 4 AT&T Park JE 383 99.6 26.6 103.2 78 0 -1 0 384 17
05/16/17 Video View Belt, Brandon SF Hill, Rich LAD 4 AT&T Park JE 382 100.0 30.4 73.3 101 -4 -2 0 388 29
05/27/17 Video View Belt, Brandon SF Foltynewicz, Mike ATL 4 AT&T Park JE 424 109.1 21.6 83.6 67 -1 0 0 426 28
06/10/17 Video View Vargas, Kennys MIN Samardzija, Jeff SF 4 AT&T Park PL 457 118.3 19.6 82.2 65 0 0 0 457 30
06/24/17 Video View Flores, Wilmer NYM Cueto, Johnny SF 4 AT&T Park ND 402 108.0 27.8 119.5 87 -3 -1 0 406 30
06/25/17 Video View Rivera, Rene NYM Moore, Matt SF 4 AT&T Park JE 392 107.0 22.4 106.7 59 1 0 0 391 21
06/28/17 Video View Hundley, Nick SF Freeland, Kyle COL 4 AT&T Park PL 369 105.0 34.6 117.4 130 -19 -3 0 391 30
07/08/17 Video View Bour, Justin MIA Samardzija, Jeff SF 4 AT&T Park PL 431 108.0 23.0 95.7 80 1 -1 0 431 29
07/21/17 Video View Sanchez, Hector SD Samardzija, Jeff SF 4 AT&T Park JE 417 104.8 23.1 89.1 70 -1 -1 0 418 23
07/22/17 Video View Myers, Wil SD Moore, Matt SF 4 AT&T Park PL 379 105.5 25.4 122.5 63 2 0 0 377 30
09/03/17 Video View DeJong, Paul STL Bumgarner, Madison SF 4 AT&T Park PL 385 99.2 34.5 108.3 115 7 3 0 375 24
09/03/17 Video View Martinez, Jose STL Bumgarner, Madison SF 4 AT&T Park ND 422 107.3 35.4 103.4 147 9 5 0 408 30
09/12/17 Video View Utley, Chase LAD Cueto, Johnny SF 4 AT&T Park ND 397 103.8 31.2 60.4 94 8 -1 0 390 30
04/10/17 Video View Tomas, Yasmany ARI Moore, Matt SF 5 AT&T Park PL 386 97.7 32.3 106.1 100 11 -1 0 376 12
04/28/17 Video View Schimpf, Ryan SD Samardzija, Jeff SF 5 AT&T Park PL 423 103.3 28.0 87.7 102 1 -1 0 422 28
05/11/17 Video View Span, Denard SF Arroyo, Bronson CIN 5 AT&T Park JE 389 99.7 31.9 73.7 105 5 -3 0 386 30
06/10/17 Video View Dozier, Brian MIN Samardzija, Jeff SF 5 AT&T Park PL 374 97.4 36.2 112.4 113 18 -1 0 357 12
07/07/17 Video View Realmuto, J.T. MIA Gearrin, Cory SF 5 AT&T Park JE/L 387 95.1 33.1 100.4 97 20 0 0 368 1
07/09/17 Video View Stanton, Giancarlo MIA Cueto, Johnny SF 5 AT&T Park PL 441 105.6 27.8 93.3 101 7 -1 0 435 30
07/09/17 Video View Hundley, Nick SF Urena, Jose MIA 5 AT&T Park JE 363 95.9 31.7 61.2 81 12 0 0 352 16
07/19/17 Video View Span, Denard SF Carrasco, Carlos CLE 5 AT&T Park ND 376 103.1 27.6 63.6 81 -6 -1 0 384 30
08/03/17 Video View Blach, Ty SF Smith, Chris OAK 5 AT&T Park PL 425 103.6 27.5 92.4 98 2 -1 0 424 27
08/17/17 Video View Rupp, Cameron PHI Samardzija, Jeff SF 5 AT&T Park JE/L 409 103.3 27.2 76.3 85 3 -1 0 406 30
08/22/17 Video View Crawford, Brandon SF Nelson, Jimmy MIL 5 AT&T Park JE 415 105.4 26.6 72.3 79 8 -1 0 408 29
09/03/17 Video View Bumgarner, Madison SF Weaver, Luke STL 5 AT&T Park ND 415 106.8 33.4 118.2 114 10 4 0 402 30
09/11/17 Video View Puig, Yasiel LAD Crick, Kyle SF 5 AT&T Park ND 442 111.6 24.4 103.5 82 1 0 0 441 30
09/13/17 Video View Bellinger, Cody LAD Moore, Matt SF 5 AT&T Park ND 445 112.7 25.0 72.7 81 5 -1 0 441 30
04/26/17 Video View Seager, Corey LAD Cueto, Johnny SF 6 AT&T Park PL 446 107.8 25.9 95.1 95 5 -2 0 443 30
04/29/17 Video View Myers, Wil SD Ramirez, Neil SF 6 AT&T Park ND 436 110.3 27.6 105.5 106 -4 -2 0 442 30
05/13/17 Video View Schebler, Scott CIN Moore, Matt SF 6 AT&T Park PL 447 111.2 22.6 83.4 76 2 -1 0 445 29
05/14/17 Video View Belt, Brandon SF Brice, Austin CIN 6 AT&T Park JE 397 102.3 27.0 72.7 76 5 -1 0 392 30
05/16/17 Video View Taylor, Chris LAD Blach, Ty SF 6 AT&T Park JE 413 101.6 29.9 92.5 109 2 -3 0 413 20
06/27/17 Video View Reynolds, Mark COL Cain, Matt SF 6 AT&T Park PL 375 97.4 33.6 116.9 95 15 -2 0 361 19
06/28/17 Video View Hwang, Jae-Gyun SF Freeland, Kyle COL 6 AT&T Park ND 417 110.0 24.7 110.9 78 1 -1 0 417 30
08/07/17 Video View Jones, Ryder SF Arrieta, Jake CHC 6 AT&T Park JE/L 396 104.6 25.3 69.9 68 5 -1 0 392 29
08/17/17 Video View Williams, Nick PHI Samardzija, Jeff SF 6 AT&T Park PL 432 108.0 23.1 84.2 76 1 0 0 431 27
08/19/17 Video View Kelly, Ty PHI Gearrin, Cory SF 6 AT&T Park PL 351 96.2 39.2 59.3 119 20 -3 0 334 8
09/03/17 Video View Bader, Harrison STL Bumgarner, Madison SF 6 AT&T Park PL 400 100.3 33.4 101.5 117 5 4 0 392 26
09/17/17 Video View Martinez, J.D. ARI Stratton, Chris SF 6 AT&T Park JE/L 415 99.9 30.6 96.8 99 15 -1 0 400 6
09/17/17 Video View Sandoval, Pablo SF De La Rosa, Jorge ARI 6 AT&T Park JE/L 378 96.4 35.6 105.3 115 16 -1 0 362 2
04/26/17 Video View Arroyo, Christian SF Romo, Sergio LAD 7 AT&T Park JE 395 100.2 26.3 99.9 75 3 -1 0 392 8
04/29/17 Video View Cordoba, Allen SD Ramirez, Neil SF 7 AT&T Park PL 393 99.3 32.1 112.2 94 18 -2 0 376 24
05/15/17 Video View Posey, Buster SF Dayton, Grant LAD 7 AT&T Park JE/L 373 94.4 32.6 104.6 93 14 -3 0 361 2
06/23/17 Video View Duda, Lucas NYM Osich, Josh SF 7 AT&T Park JE/L 361 95.9 30.2 67.9 82 4 -1 0 358 18
06/24/17 Video View Belt, Brandon SF deGrom, Jacob NYM 7 AT&T Park PL 416 103.3 26.8 102.3 81 9 -1 0 407 27
07/20/17 Video View Spangenberg, Cory SD Bumgarner, Madison SF 7 AT&T Park JE/L 430 107.1 25.2 78.6 79 5 -1 0 425 29
07/21/17 Video View Myers, Wil SD Strickland, Hunter SF 7 AT&T Park PL 382 100.1 36.2 110.2 124 15 -3 0 370 22
08/05/17 Video View Pence, Hunter SF Walker, Taijuan ARI 7 AT&T Park PL 380 98.0 34.9 118.1 100 22 -2 0 360 23
09/01/17 Video View Grichuk, Randal STL Strickland, Hunter SF 7 AT&T Park ND 413 106.9 30.4 117.7 97 3 2 0 407 30
04/26/17 Video View Morse, Michael SF Baez, Pedro LAD 8 AT&T Park PL 412 108.2 22.4 101.8 67 0 -1 0 412 30
04/28/17 Video View Arroyo, Christian SF Buchter, Ryan SD 8 AT&T Park PL 388 105.5 26.6 119.0 74 0 -1 0 389 30
06/25/17 Video View Bruce, Jay NYM Osich, Josh SF 8 AT&T Park JE 424 105.4 24.7 84.4 82 1 0 0 423 26
07/24/17 Video View Mercer, Jordy PIT Osich, Josh SF 8 AT&T Park PL 375 99.9 28.8 115.8 77 5 -1 0 371 27
08/03/17 Video View Davis, Rajai OAK Blach, Ty SF 8 AT&T Park PL 377 100.6 28.6 111.6 86 -4 0 0 381 30
08/09/17 Video View Pence, Hunter SF Strop, Pedro CHC 8 AT&T Park PL 354 95.1 33.2 54.9 83 12 -1 0 343 19
09/03/17 Video View Federowicz, Tim SF Alcantara, Sandy STL 8 AT&T Park PL 381 104.0 26.1 121.6 64 6 1 0 374 29
04/30/17 Video View Sanchez, Hector SD Melancon, Mark SF 9 AT&T Park PL 372 98.6 36.1 67.2 119 9 1 0 362 21
05/17/17 Video View Nunez, Eduardo SF Romo, Sergio LAD 9 AT&T Park PL/L 383 99.6 33.4 125.3 91 20 -1 0 364 30
06/25/17 Video View Granderson, Curtis NYM Strickland, Hunter SF 9 AT&T Park PL 370 100.9 29.0 56.3 75 4 -1 0 367 30
07/07/17 Video View Span, Denard SF Straily, Dan MIA 9 AT&T Park ND 397 104.0 30.0 56.8 83 12 -1 0 386 30
07/21/17 Video View Gillaspie, Conor SF Maurer, Brandon SD 9 AT&T Park PL 383 101.5 30.3 64.3 91 2 -2 0 383 30
08/19/17 Video View Rupp, Cameron PHI Suarez, Albert SF 9 AT&T Park JE 398 105.1 23.3 103.1 63 1 0 0 397 19
08/20/17 Video View Hoskins, Rhys PHI Crick, Kyle SF 9 AT&T Park PL 379 99.0 35.2 118.8 107 16 -1 0 363 25
08/23/17 Video View Vogt, Stephen MIL Dyson, Sam SF 9 AT&T Park JE 348 96.6 29.6 57.7 74 1 -1 0 348 18
09/01/17 Video View Piscotty, Stephen STL Suarez, Albert SF 9 AT&T Park JE/L 372 97.6 36.1 103.5 126 3 3 0 367 2
09/02/17 Video View Hundley, Nick SF Sherriff, Ryan STL 10 AT&T Park PL 356 96.3 30.9 59.6 79 1 4 0 351 21
07/09/17 Video View Ellis, A.J. MIA Kontos, George SF 11 AT&T Park JE 377 96.5 29.2 107.4 77 11 -1 0 366 1
07/09/17 Video View Stanton, Giancarlo MIA Kontos, George SF 11 AT&T Park JE 390 98.6 28.5 104.8 77 10 -1 0 381 8
04/30/17 Video View Myers, Wil SD Kontos, George SF 12 AT&T Park PL 381 100.4 31.6 114.1 99 0 0 0 380 30
05/12/17 Video View Posey, Buster SF Stephenson, Robert CIN 17 AT&T Park ND 436 108.6 28.7 107.3 101 9 -3 0 430 30


About HitTracker | Contact Us
© 2006-2017 HitTrackerOnline